DW4915 Mazarete ES current weather conditions

sailwx.info

Wind from 325 at 7 knots gusting 13

Air temperature 5.6° C
Dewpoint 4.4° C

Last reported at 2015-Feb-27 02:46 UTC.
Time now 2015-Feb-27 04:05 UTC

Location: N 40°58' W 002°11'.
View on Google Maps.

See reports from other nearby stations

  
Tides and Currents Weather Stations Pressure Air Temp Water Temp Dewpoint Dewpoint Depression Visibility Wind Speed Wind Dir Waves Ship Positions
date/time (UTC)wind fromknots sea level pressurealtimeterstation pressurevisibilityair tempwater tempwave heightnotes
2015-Feb-27 03:46 317 12 gusting 19 5.0
2015-Feb-27 03:41 324 14 gusting 19 5.0
2015-Feb-27 03:31 326 10 gusting 15 5.0
2015-Feb-27 03:26 321 11 gusting 19 5.6
2015-Feb-27 03:21 332 13 gusting 19 5.6
2015-Feb-27 03:11 326 6 gusting 11 5.6
2015-Feb-27 03:06 323 7 gusting 12 5.6
2015-Feb-27 03:01 336 8 gusting 12 5.6
2015-Feb-27 02:56 337 9 gusting 13 5.6
2015-Feb-27 02:51 310 6 gusting 13 5.6
2015-Feb-27 02:46 325 7 gusting 13 5.6
2015-Feb-27 02:41 338 6 gusting 15 5.6
2015-Feb-27 02:31 324 11 gusting 14 5.6
2015-Feb-27 02:26 317 9 gusting 16 5.6
2015-Feb-27 02:21 323 12 gusting 20 5.6
2015-Feb-27 02:11 327 12 gusting 21 5.0
2015-Feb-27 02:06 326 14 gusting 21 5.0
2015-Feb-27 02:01 332 16 gusting 21 5.6
2015-Feb-27 01:56 309 9 gusting 20 5.6
2015-Feb-27 01:51 329 14 gusting 21 5.6
2015-Feb-27 01:41 309 13 gusting 19 5.6
2015-Feb-27 01:36 320 10 gusting 18 5.6
2015-Feb-27 01:31 332 9 gusting 16 5.6
2015-Feb-27 01:21 325 8 gusting 15 5.6
2015-Feb-27 01:16 320 12 gusting 18 5.6
2015-Feb-27 01:11 322 10 gusting 18 5.6
2015-Feb-27 01:06 325 11 gusting 18 5.6
2015-Feb-27 00:56 309 1 gusting 6 5.6
2015-Feb-27 00:51 311 2 gusting 9 5.6
2015-Feb-27 00:46 311 6 gusting 11 5.6
2015-Feb-27 00:36 333 10 gusting 13 5.6
2015-Feb-27 00:31 308 8 gusting 13 5.6
2015-Feb-27 00:26 344 9 gusting 13 5.6
2015-Feb-27 00:16 324 9 gusting 18 5.6
2015-Feb-27 00:11 332 13 gusting 18 6.1
2015-Feb-27 00:06 312 9 gusting 19 6.1
2015-Feb-26 23:56 331 9 gusting 17 6.1
2015-Feb-26 23:51 313 10 gusting 20 6.1
2015-Feb-26 23:46 321 16 gusting 20 6.1
2015-Feb-26 23:36 329 11 gusting 19 6.1
2015-Feb-26 23:31 323 10 gusting 19 5.6
2015-Feb-26 23:26 320 13 gusting 19 5.6
2015-Feb-26 23:16 329 10 gusting 15 5.6
2015-Feb-26 23:11 326 9 gusting 15 6.1
2015-Feb-26 23:06 333 8 gusting 21 6.1
2015-Feb-26 23:01 342 13 gusting 21 6.1
2015-Feb-26 22:56 340 14 gusting 18 6.1
2015-Feb-26 22:51 321 13 gusting 20 6.1
2015-Feb-26 22:46 319 15 gusting 20 6.1
2015-Feb-26 22:36 331 14 gusting 19 6.1
2015-Feb-26 22:31 286 12 gusting 19 6.1
2015-Feb-26 22:21 327 14 gusting 22 6.1
2015-Feb-26 22:16 327 9 gusting 13 6.1
2015-Feb-26 22:11 310 6 gusting 13 6.1
2015-Feb-26 22:01 298 6 gusting 13 6.1
2015-Feb-26 21:56 328 6 gusting 10 6.1
2015-Feb-26 21:51 332 6 gusting 12 6.1
2015-Feb-26 21:46 331 8 gusting 13 6.1
2015-Feb-26 21:36 314 8 gusting 14 6.1
2015-Feb-26 21:31 323 9 gusting 14 6.1
2015-Feb-26 21:21 331 8 gusting 13 6.1
2015-Feb-26 21:16 330 7 gusting 13 6.1
2015-Feb-26 21:11 335 7 gusting 11 6.1
2015-Feb-26 21:01 325 7 gusting 13 6.7
2015-Feb-26 20:56 323 9 gusting 13 6.7
2015-Feb-26 20:51 332 8 gusting 13 6.7
2015-Feb-26 20:46 336 7 gusting 10 6.7
2015-Feb-26 20:41 333 6 gusting 10 6.7
2015-Feb-26 20:36 329 5 gusting 11 6.7
2015-Feb-26 20:31 329 8 gusting 11 6.7
2015-Feb-26 20:21 325 6 gusting 9 6.7
2015-Feb-26 20:16 324 6 gusting 13 6.7
2015-Feb-26 20:06 339 7 gusting 12 6.7
2015-Feb-26 20:01 335 3 gusting 8 6.7
2015-Feb-26 19:56 335 4 gusting 11 6.7
2015-Feb-26 19:51 331 4 gusting 11 6.7
2015-Feb-26 19:41 331 7 gusting 10 6.7
2015-Feb-26 19:36 321 6 gusting 12 6.7
2015-Feb-26 19:31 321 6 gusting 12 6.7
2015-Feb-26 19:26 330 7 gusting 12 6.7
2015-Feb-26 19:16 313 4 gusting 10 6.7
2015-Feb-26 19:11 323 3 gusting 6 6.7
2015-Feb-26 19:01 322 3 gusting 8 6.7
2015-Feb-26 18:56 320 3 gusting 6 6.7
2015-Feb-26 18:51 325 3 gusting 6 6.7
2015-Feb-26 18:46 324 5 gusting 6 6.7
2015-Feb-26 18:36 325 4 gusting 10 6.7
2015-Feb-26 18:31 324 6 gusting 10 6.7
2015-Feb-26 18:26 317 5 gusting 6 6.7
2015-Feb-26 18:16 319 0 gusting 6 6.7
2015-Feb-26 18:11 317 3 gusting 7 6.7
2015-Feb-26 18:06 318 4 gusting 8 6.7
2015-Feb-26 18:01 319 6 gusting 8 6.7
2015-Feb-26 17:51 320 4 gusting 7 6.7
2015-Feb-26 17:46 321 4 gusting 7 6.7
2015-Feb-26 17:36 327 6 gusting 8 7.2
2015-Feb-26 17:31 327 6 gusting 9 7.2
2015-Feb-26 17:26 325 6 gusting 9 7.2
2015-Feb-26 17:16 308 6 gusting 10 7.2
2015-Feb-26 17:11 325 6 gusting 13 7.2
2015-Feb-26 17:06 320 7 gusting 13 7.2
2015-Feb-26 16:56 314 6 gusting 14 7.8
2015-Feb-26 16:46 322 11 gusting 15 7.8
2015-Feb-26 16:41 324 11 gusting 15 7.8
2015-Feb-26 16:36 333 12 gusting 15 8.3
2015-Feb-26 16:26 325 8 gusting 13 7.8
2015-Feb-26 16:21 319 8 gusting 15 7.8
2015-Feb-26 16:16 330 10 gusting 18 7.8
2015-Feb-26 16:11 336 12 gusting 18 7.8
2015-Feb-26 16:01 311 8 gusting 14 8.3
2015-Feb-26 15:56 337 11 gusting 18 8.3
2015-Feb-26 15:46 315 12 gusting 16 8.3
2015-Feb-26 15:41 309 11 gusting 16 8.9
2015-Feb-26 15:36 327 12 gusting 18 8.9
2015-Feb-26 15:26 284 7 gusting 13 8.9
2015-Feb-26 15:21 324 10 gusting 15 8.9
2015-Feb-26 15:16 323 11 gusting 15 9.4
2015-Feb-26 15:11 302 10 gusting 15 9.4
2015-Feb-26 15:01 333 11 gusting 17 9.4
2015-Feb-26 14:56 319 13 gusting 19 9.4
2015-Feb-26 14:51 334 13 gusting 19 10.0
2015-Feb-26 14:41 283 12 gusting 18 10.0
2015-Feb-26 14:36 292 12 gusting 18 10.6
2015-Feb-26 14:31 340 12 gusting 15 10.0
2015-Feb-26 14:26 350 9 gusting 15 10.0
2015-Feb-26 14:21 346 11 gusting 16 10.6
2015-Feb-26 14:16 310 11 gusting 16 10.6
2015-Feb-26 14:06 308 9 gusting 18 11.1
2015-Feb-26 14:01 338 7 gusting 13 10.6
2015-Feb-26 13:56 323 9 gusting 13 10.6
2015-Feb-26 13:46 333 7 gusting 15 10.0
2015-Feb-26 13:41 338 6 gusting 13 10.0
2015-Feb-26 13:36 321 8 gusting 13 9.4
2015-Feb-26 13:26 339 10 gusting 13 9.4
2015-Feb-26 13:21 319 9 gusting 13 9.4
2015-Feb-26 13:11 329 8 gusting 12 8.9
2015-Feb-26 13:06 298 6 gusting 12 8.9
2015-Feb-26 13:01 312 6 gusting 11 8.9
2015-Feb-26 12:51 310 6 gusting 13 9.4
2015-Feb-26 12:46 324 6 gusting 13 8.9
2015-Feb-26 12:41 321 6 gusting 11 8.9
2015-Feb-26 12:31 303 8 gusting 15 9.4
2015-Feb-26 12:26 304 7 gusting 13 9.4
2015-Feb-26 12:16 338 7 gusting 14 9.4
2015-Feb-26 12:11 312 7 gusting 15 9.4
2015-Feb-26 12:06 321 10 gusting 18 10.0
2015-Feb-26 12:01 310 11 gusting 18 10.0
2015-Feb-26 11:51 328 13 gusting 19 10.6
2015-Feb-26 11:46 332 13 gusting 19 10.6
2015-Feb-26 11:36 356 6 gusting 15 10.6
2015-Feb-26 11:26 003 6 gusting 16 10.0
2015-Feb-26 11:21 356 10 gusting 21 9.4
2015-Feb-26 11:16 337 12 gusting 21 9.4
2015-Feb-26 11:11 342 10 gusting 15 8.9
2015-Feb-26 11:01 321 10 gusting 14 9.4
2015-Feb-26 10:56 337 10 gusting 18 8.9
2015-Feb-26 10:51 349 11 gusting 17 8.9
2015-Feb-26 10:41 343 10 gusting 15 8.3
2015-Feb-26 10:36 330 11 gusting 19 8.3
2015-Feb-26 10:26 336 13 gusting 24 7.8
2015-Feb-26 10:21 358 13 gusting 20 8.3
2015-Feb-26 10:16 348 8 gusting 20 7.8
2015-Feb-26 10:06 357 13 gusting 19 6.7
2015-Feb-26 10:01 344 13 gusting 19 6.7
2015-Feb-26 09:56 346 12 gusting 18 6.7
2015-Feb-26 09:46 337 9 gusting 19 6.1
2015-Feb-26 09:41 352 15 gusting 19 6.1
2015-Feb-26 09:36 332 14 gusting 20 6.1
2015-Feb-26 09:31 338 13 gusting 20 6.1
2015-Feb-26 09:26 336 14 gusting 21 6.1
2015-Feb-26 09:21 339 13 gusting 21 6.1
2015-Feb-26 09:16 338 15 gusting 19 5.6
2015-Feb-26 09:11 336 13 gusting 19 5.6
2015-Feb-26 09:01 327 14 gusting 20 5.6
2015-Feb-26 08:56 337 12 gusting 20 5.6
2015-Feb-26 08:51 335 12 gusting 21 5.6
2015-Feb-26 08:46 340 13 gusting 22 5.6
2015-Feb-26 08:41 354 14 gusting 23 5.6
2015-Feb-26 08:36 334 13 gusting 19 5.6
2015-Feb-26 08:26 346 15 gusting 26 5.6
2015-Feb-26 08:21 342 18 gusting 26 5.0
2015-Feb-26 08:11 351 11 gusting 15 5.0
2015-Feb-26 08:06 346 10 gusting 19 5.0
2015-Feb-26 08:01 343 11 gusting 19 5.0
2015-Feb-26 07:56 339 13 gusting 20 5.0
2015-Feb-26 07:51 336 13 gusting 20 5.0
2015-Feb-26 07:46 332 14 gusting 17 5.0
2015-Feb-26 07:41 335 10 gusting 13 5.0
2015-Feb-26 07:36 327 8 gusting 14 4.4
2015-Feb-26 07:31 332 10 gusting 14 4.4
2015-Feb-26 07:26 328 11 gusting 13 4.4
2015-Feb-26 07:16 329 8 gusting 13 4.4
2015-Feb-26 07:11 323 7 gusting 14 4.4
2015-Feb-26 07:01 329 7 gusting 12 4.4
2015-Feb-26 06:56 324 7 gusting 11 4.4
2015-Feb-26 06:51 333 6 gusting 9 4.4
2015-Feb-26 06:41 337 6 gusting 13 4.4
2015-Feb-26 06:36 341 7 gusting 12 4.4
2015-Feb-26 06:31 341 7 gusting 11 4.4
2015-Feb-26 06:21 346 6 gusting 11 4.4
2015-Feb-26 06:16 344 7 gusting 11 4.4
2015-Feb-26 06:11 338 8 gusting 12 4.4
2015-Feb-26 06:06 335 9 gusting 12 4.4
2015-Feb-26 06:01 334 7 gusting 12 4.4
2015-Feb-26 05:56 324 6 gusting 7 3.9
2015-Feb-26 05:51 325 6 gusting 7 3.9
2015-Feb-26 05:46 325 6 gusting 8 3.9
2015-Feb-26 05:36 335 6 gusting 11 3.9
2015-Feb-26 05:31 335 7 gusting 11 4.4
2015-Feb-26 05:26 341 8 gusting 11 4.4
2015-Feb-26 05:16 332 9 gusting 13 4.4
2015-Feb-26 05:11 327 11 gusting 14 4.4
2015-Feb-26 05:06 331 10 gusting 16 4.4
2015-Feb-26 05:01 332 12 gusting 16 4.4
2015-Feb-26 04:51 330 12 gusting 16 4.4
2015-Feb-26 04:46 329 13 gusting 16 4.4
2015-Feb-26 04:41 327 11 gusting 16 4.4
2015-Feb-26 04:36 327 12 gusting 16 4.4
2015-Feb-26 04:26 324 10 gusting 14 4.4
2015-Feb-26 04:21 338 10 gusting 14 4.4
2015-Feb-26 04:11 337 8 gusting 13 4.4
2015-Feb-26 04:06 350 6 gusting 13 4.4
2015-Feb-26 04:01 352 5 gusting 11 4.4
2015-Feb-26 03:56 352 6 gusting 11 4.4
2015-Feb-26 03:51 341 6 gusting 11 4.4
2015-Feb-26 03:46 341 6 gusting 13 4.4
2015-Feb-26 03:36 342 6 gusting 13 4.4
2015-Feb-26 03:31 344 6 gusting 14 5.0
2015-Feb-26 03:26 347 8 gusting 14 5.0
2015-Feb-26 03:16 347 10 gusting 18 5.0
2015-Feb-26 03:11 347 8 gusting 18 5.0
2015-Feb-26 03:06 342 12 gusting 17 5.0
2015-Feb-26 02:56 337 12 gusting 16 5.0
2015-Feb-26 02:51 333 13 gusting 20 5.0
2015-Feb-26 02:46 347 13 gusting 20 5.0
2015-Feb-26 02:36 339 12 gusting 15 5.0
2015-Feb-26 02:31 338 12 gusting 15 5.0
2015-Feb-26 02:26 354 10 gusting 18 5.0
2015-Feb-26 02:16 342 8 gusting 13 5.0
2015-Feb-26 02:11 343 8 gusting 14 5.0
2015-Feb-26 02:01 338 8 gusting 13 5.0
2015-Feb-26 01:56 325 7 gusting 13 5.0
2015-Feb-26 01:51 319 6 gusting 11 5.0
2015-Feb-26 01:41 327 8 gusting 13 5.0
2015-Feb-26 01:36 318 6 gusting 12 5.6
2015-Feb-26 01:26 317 7 gusting 14 5.6
2015-Feb-26 01:21 329 9 gusting 14 5.6
2015-Feb-26 01:16 348 9 gusting 18 5.6
2015-Feb-26 01:06 339 9 gusting 13 5.6
2015-Feb-26 01:01 345 8 gusting 13 5.6
2015-Feb-26 00:56 344 6 gusting 13 5.6
2015-Feb-26 00:46 335 7 gusting 13 5.6
2015-Feb-26 00:41 335 7 gusting 13 5.0
2015-Feb-26 00:36 323 8 gusting 16 5.0
2015-Feb-26 00:26 329 12 gusting 15 5.0
2015-Feb-26 00:21 340 12 gusting 15 5.0
2015-Feb-26 00:16 344 8 gusting 15 5.0
2015-Feb-26 00:06 342 7 gusting 12 5.0
2015-Feb-26 00:01 342 6 gusting 12 5.0
2015-Feb-25 23:56 342 7 gusting 10 5.0
2015-Feb-25 23:46 337 6 gusting 10 5.0
2015-Feb-25 23:41 334 7 gusting 11 5.0
2015-Feb-25 23:31 333 7 gusting 10 5.0
2015-Feb-25 23:26 319 6 gusting 11 5.0
2015-Feb-25 23:16 317 6 gusting 14 5.0
2015-Feb-25 23:11 322 11 gusting 14 5.0
2015-Feb-25 23:06 325 8 gusting 14 5.0
2015-Feb-25 22:56 320 10 gusting 13 5.0
2015-Feb-25 22:51 312 10 gusting 13 5.0
2015-Feb-25 22:46 321 6 gusting 13 5.0
2015-Feb-25 22:36 324 6 gusting 11 5.0
2015-Feb-25 22:31 321 6 gusting 11 5.0
2015-Feb-25 22:21 318 6 gusting 11 5.0
2015-Feb-25 22:16 319 7 gusting 9 5.0
2015-Feb-25 22:11 325 7 gusting 9 5.0
2015-Feb-25 22:06 329 6 gusting 9 5.0
2015-Feb-25 21:56 333 6 gusting 8 5.0
2015-Feb-25 21:51 332 6 gusting 8 5.0
2015-Feb-25 21:46 332 4 gusting 8 5.0
2015-Feb-25 21:36 329 7 gusting 11 5.0
2015-Feb-25 21:31 332 8 gusting 13 5.0
2015-Feb-25 21:26 329 8 gusting 13 5.0
2015-Feb-25 21:21 326 7 gusting 15 5.0
2015-Feb-25 21:11 332 7 gusting 15 5.0
2015-Feb-25 21:06 323 11 gusting 15 5.0
2015-Feb-25 20:56 327 9 gusting 16 5.0
2015-Feb-25 20:51 327 12 gusting 16 5.0
2015-Feb-25 20:46 327 9 gusting 14 5.0
2015-Feb-25 20:41 304 9 gusting 14 5.0
2015-Feb-25 20:31 312 8 gusting 15 5.0
2015-Feb-25 20:26 341 9 gusting 13 5.0
2015-Feb-25 20:21 339 6 gusting 13 5.0
2015-Feb-25 20:11 317 10 gusting 13 5.0
2015-Feb-25 20:06 285 7 gusting 16 5.6
2015-Feb-25 20:01 325 8 gusting 16 5.6
2015-Feb-25 19:56 321 6 gusting 12 5.6
2015-Feb-25 19:51 325 8 gusting 15 5.6
2015-Feb-25 19:41 318 10 gusting 19 5.6
2015-Feb-25 19:36 339 13 gusting 19 5.6
2015-Feb-25 19:31 340 11 gusting 16 5.6
2015-Feb-25 19:21 327 13 gusting 19 5.6
2015-Feb-25 19:16 329 11 gusting 19 5.6
2015-Feb-25 19:11 317 12 gusting 19 5.6
2015-Feb-25 19:01 335 13 gusting 21 5.6
2015-Feb-25 18:56 329 13 gusting 24 5.6
2015-Feb-25 18:46 327 15 gusting 23 5.6
2015-Feb-25 18:41 323 10 gusting 21 5.6
2015-Feb-25 18:36 323 13 gusting 21 5.6
2015-Feb-25 18:26 316 15 gusting 22 5.6
2015-Feb-25 18:21 335 14 gusting 20 5.6
2015-Feb-25 18:11 336 13 gusting 20 5.6
2015-Feb-25 18:06 324 10 gusting 18 5.6
2015-Feb-25 17:56 327 12 gusting 19 5.6
2015-Feb-25 17:51 322 8 gusting 19 5.6
2015-Feb-25 17:46 311 12 gusting 16 5.6
2015-Feb-25 17:41 318 9 gusting 14 5.6
2015-Feb-25 17:31 327 14 gusting 20 5.6
2015-Feb-25 17:26 312 10 gusting 18 5.6
2015-Feb-25 17:21 321 13 gusting 19 5.6
2015-Feb-25 17:16 327 13 gusting 19 5.0
2015-Feb-25 17:06 317 13 gusting 21 5.0
2015-Feb-25 17:01 328 17 gusting 21 5.6
2015-Feb-25 16:56 318 15 gusting 22 5.6
2015-Feb-25 16:51 317 16 gusting 22 5.6
2015-Feb-25 16:41 330 13 gusting 21 5.6
2015-Feb-25 16:36 330 16 gusting 22 5.6
2015-Feb-25 16:31 340 14 gusting 26 5.6
2015-Feb-25 16:21 335 16 gusting 21 6.1
2015-Feb-25 16:16 319 14 gusting 23 5.6
2015-Feb-25 16:11 319 17 gusting 23 5.6
2015-Feb-25 16:01 328 13 gusting 22 6.1
2015-Feb-25 15:56 345 15 gusting 22 6.1
2015-Feb-25 15:51 337 12 gusting 23 6.1
2015-Feb-25 15:46 327 18 gusting 25 6.1
2015-Feb-25 15:41 327 13 gusting 24 6.1
2015-Feb-25 15:31 313 19 gusting 26 6.1
2015-Feb-25 15:26 329 13 gusting 26 6.7
2015-Feb-25 15:21 338 16 gusting 28 6.7
2015-Feb-25 15:11 323 17 gusting 25 6.7
2015-Feb-25 15:06 332 17 gusting 25 6.7
2015-Feb-25 15:01 321 17 gusting 26 6.7
2015-Feb-25 14:51 332 19 gusting 28 6.7
2015-Feb-25 14:46 333 19 gusting 29 6.7
2015-Feb-25 14:41 322 20 gusting 29 6.7
2015-Feb-25 14:31 331 17 gusting 25 6.7
2015-Feb-25 14:26 323 16 gusting 25 7.2
2015-Feb-25 14:21 334 16 gusting 26 6.7
2015-Feb-25 14:16 346 14 gusting 26 6.7
2015-Feb-25 14:11 320 13 gusting 26 6.7
2015-Feb-25 14:06 311 19 gusting 32 6.7
2015-Feb-25 13:56 334 19 gusting 27 6.7
2015-Feb-25 13:51 337 17 gusting 29 6.7
2015-Feb-25 13:46 329 19 gusting 31 6.7
2015-Feb-25 13:41 325 21 gusting 31 6.7
2015-Feb-25 13:36 316 23 gusting 30 6.7
2015-Feb-25 13:31 341 19 gusting 30 6.7
2015-Feb-25 13:26 351 19 gusting 31 6.7
2015-Feb-25 13:16 310 23 gusting 27 6.7
2015-Feb-25 13:11 311 21 gusting 28 6.7
2015-Feb-25 13:06 321 20 gusting 32 6.7
2015-Feb-25 12:56 328 20 gusting 28 6.7
2015-Feb-25 12:51 331 19 gusting 33 7.2
2015-Feb-25 12:46 332 19 gusting 33 6.7
2015-Feb-25 12:41 331 15 gusting 26 6.7
2015-Feb-25 12:31 318 18 gusting 29 6.1
2015-Feb-25 12:21 314 19 gusting 29 6.7
2015-Feb-25 12:16 327 17 gusting 29 6.7
2015-Feb-25 12:11 327 21 gusting 28 6.1
2015-Feb-25 12:01 312 19 gusting 26 6.1
2015-Feb-25 11:56 287 16 gusting 27 6.1
2015-Feb-25 11:51 329 18 gusting 27 6.1
2015-Feb-25 11:41 339 19 gusting 29 5.6
2015-Feb-25 11:36 323 16 gusting 29 5.6
2015-Feb-25 11:31 321 15 gusting 28 5.0
2015-Feb-25 11:26 329 19 gusting 28 5.0
2015-Feb-25 11:21 302 13 gusting 27 5.0
2015-Feb-25 11:16 328 20 gusting 26 5.0
2015-Feb-25 11:06 313 18 gusting 26 5.0
2015-Feb-25 11:01 325 14 gusting 21 4.4
2015-Feb-25 10:56 302 14 gusting 23 4.4
2015-Feb-25 10:51 324 16 gusting 24 4.4
2015-Feb-25 10:41 344 11 gusting 23 3.9
2015-Feb-25 10:36 329 13 gusting 23 3.9
2015-Feb-25 10:26 296 11 gusting 23 3.3
2015-Feb-25 10:21 304 17 gusting 23 3.3
2015-Feb-25 10:16 338 15 gusting 25 3.3
2015-Feb-25 10:06 327 18 gusting 23 2.8
2015-Feb-25 10:01 312 16 gusting 27 3.3
2015-Feb-25 09:56 320 18 gusting 28 2.8
2015-Feb-25 09:46 337 13 gusting 24 2.8
2015-Feb-25 09:41 329 16 gusting 24 2.8
2015-Feb-25 09:31 333 19 gusting 25 2.8
2015-Feb-25 09:26 326 15 gusting 22 2.2
2015-Feb-25 09:16 329 15 gusting 23 1.7
2015-Feb-25 09:11 327 16 gusting 23 1.7
2015-Feb-25 09:06 335 16 gusting 23 1.7
2015-Feb-25 08:56 331 15 gusting 21 1.7
2015-Feb-25 08:51 337 13 gusting 20 1.1
2015-Feb-25 08:46 321 15 gusting 26 1.1
2015-Feb-25 08:36 332 13 gusting 23 1.1
2015-Feb-25 08:31 333 14 gusting 19 1.1
2015-Feb-25 08:26 331 14 gusting 19 1.1
2015-Feb-25 08:16 325 14 gusting 24 0.6
2015-Feb-25 08:11 319 13 gusting 19 0.6
2015-Feb-25 08:06 323 9 gusting 14 0.6
2015-Feb-25 07:56 321 10 gusting 18 0.6
2015-Feb-25 07:51 321 10 gusting 19 0.6
2015-Feb-25 07:46 321 12 gusting 19 0.6
2015-Feb-25 07:41 336 13 gusting 19 0.6
2015-Feb-25 07:31 312 11 gusting 19 0.6
2015-Feb-25 07:26 315 8 gusting 14 0.6
2015-Feb-25 07:16 333 5 gusting 14 0.6
2015-Feb-25 07:11 312 7 gusting 16 0.6
2015-Feb-25 07:06 309 10 gusting 16 0.6
2015-Feb-25 06:56 331 11 gusting 15 -0.0
2015-Feb-25 06:51 308 6 gusting 12 -0.0
2015-Feb-25 06:46 326 7 gusting 12 -0.0
2015-Feb-25 06:41 315 7 gusting 15 -0.0
2015-Feb-25 06:31 319 9 gusting 16 -0.0
2015-Feb-25 06:26 305 10 gusting 15 -0.0
2015-Feb-25 06:21 327 7 gusting 16 -0.0
2015-Feb-25 06:11 328 6 gusting 13 -0.0
2015-Feb-25 06:06 314 7 gusting 13 -0.0
2015-Feb-25 05:56 312 6 gusting 13 -0.0
2015-Feb-25 05:51 316 6 gusting 14 -0.0
2015-Feb-25 05:46 352 8 gusting 15 -0.0
2015-Feb-25 05:41 336 11 gusting 22 -0.0
2015-Feb-25 05:31 340 10 gusting 22 -0.0
2015-Feb-25 05:26 327 12 gusting 22 -0.0
2015-Feb-25 05:21 331 12 gusting 19 -0.0
2015-Feb-25 05:11 353 14 gusting 19 -0.0
2015-Feb-25 05:06 329 9 gusting 21 -0.0
2015-Feb-25 04:56 349 13 gusting 19 -0.0
2015-Feb-25 04:51 333 11 gusting 22 -0.0
2015-Feb-25 04:46 337 14 gusting 22 0.6
2015-Feb-25 04:41 343 14 gusting 22 0.6
2015-Feb-25 04:31 345 13 gusting 20 0.6
2015-Feb-25 04:26 342 13 gusting 23 -0.0
2015-Feb-25 04:16 346 16 gusting 24 0.6
2015-Feb-25 04:11 339 13 gusting 20 -0.0
2015-Feb-25 04:06 328 15 gusting 22 -0.0
2015-Feb-25 04:01 328 15 gusting 22 -0.0